createdAt,value
2018-10-06T00:01:42.205Z,99833.00
2018-10-06T00:04:13.463Z,99818.00
2018-10-06T00:06:43.604Z,99806.00
2018-10-06T00:09:13.678Z,99791.00
2018-10-06T00:11:43.722Z,99797.00
2018-10-06T00:14:13.944Z,99803.00
2018-10-06T00:16:44.876Z,99813.00
2018-10-06T00:19:14.938Z,99826.00
2018-10-06T00:21:45.376Z,99827.00
2018-10-06T00:24:15.686Z,99826.00
2018-10-06T00:26:46.028Z,99824.00
2018-10-06T00:29:16.305Z,99805.00
2018-10-06T00:31:46.931Z,99809.00
2018-10-06T00:34:18.831Z,99826.00
2018-10-06T00:36:50.630Z,99830.00
2018-10-06T00:39:21.757Z,99819.00
2018-10-06T00:41:54.043Z,99808.00
2018-10-06T00:44:24.479Z,99803.00
2018-10-06T00:46:55.012Z,99793.00
2018-10-06T00:49:26.259Z,99783.00
2018-10-06T00:51:56.855Z,99801.00
2018-10-06T00:54:27.754Z,99801.00
2018-10-06T00:56:58.713Z,99795.00
2018-10-06T00:59:28.848Z,99795.00
2018-10-06T01:02:00.161Z,99788.00
2018-10-06T01:04:30.628Z,99786.00
2018-10-06T01:07:00.746Z,99779.00
2018-10-06T01:09:31.049Z,99781.00
2018-10-06T01:12:02.811Z,99778.00
2018-10-06T01:14:33.329Z,99756.00
2018-10-06T01:17:03.964Z,99763.00
2018-10-06T01:19:35.779Z,99766.00
2018-10-06T01:22:06.536Z,99757.00
2018-10-06T01:24:39.244Z,99761.00
2018-10-06T01:27:09.626Z,99769.00
2018-10-06T01:29:39.760Z,99773.00
2018-10-06T01:32:13.261Z,99788.00
2018-10-06T01:34:43.902Z,99776.00
2018-10-06T01:37:14.350Z,99760.00
2018-10-06T01:39:44.540Z,99739.00
2018-10-06T01:42:15.784Z,99733.00
2018-10-06T01:44:45.784Z,99750.00
2018-10-06T01:47:16.152Z,99732.00
2018-10-06T01:49:46.715Z,99716.00
2018-10-06T01:52:19.803Z,99735.00
2018-10-06T01:54:50.750Z,99744.00
2018-10-06T01:57:20.750Z,99761.00
2018-10-06T01:59:51.132Z,99751.00
2018-10-06T02:02:21.161Z,99748.00
2018-10-06T02:04:51.358Z,99751.00
2018-10-06T02:07:22.183Z,99764.00
2018-10-06T02:09:52.434Z,99750.00
2018-10-06T02:12:23.605Z,99746.00
2018-10-06T02:14:53.900Z,99725.00
2018-10-06T02:17:24.137Z,99736.00
2018-10-06T02:19:56.279Z,99742.00
2018-10-06T02:22:26.633Z,99748.00
2018-10-06T02:24:57.359Z,99744.00
2018-10-06T02:27:27.586Z,99727.00
2018-10-06T02:29:58.139Z,99726.00
2018-10-06T02:32:28.969Z,99741.00
2018-10-06T02:35:00.952Z,99728.00
2018-10-06T02:37:31.203Z,99727.00
2018-10-06T02:40:01.401Z,99729.00
2018-10-06T02:42:31.829Z,99727.00
2018-10-06T02:45:02.160Z,99723.00
2018-10-06T02:47:32.090Z,99733.00
2018-10-06T02:50:02.081Z,99732.00
2018-10-06T02:52:32.200Z,99728.00
2018-10-06T02:55:02.480Z,99735.00
2018-10-06T02:57:32.594Z,99733.00
2018-10-06T03:00:02.718Z,99736.00
2018-10-06T03:02:33.045Z,99739.00
2018-10-06T03:05:03.420Z,99735.00
2018-10-06T03:07:33.686Z,99728.00
2018-10-06T03:10:04.173Z,99726.00
2018-10-06T03:12:34.376Z,99732.00
2018-10-06T03:15:04.803Z,99743.00
2018-10-06T03:17:34.767Z,99730.00
2018-10-06T03:20:05.125Z,99741.00
2018-10-06T03:22:35.635Z,99735.00
2018-10-06T03:25:06.458Z,99740.00
2018-10-06T03:27:36.692Z,99744.00
2018-10-06T03:30:08.767Z,99741.00
2018-10-06T03:32:39.189Z,99748.00
2018-10-06T03:35:09.939Z,99738.00
2018-10-06T03:37:40.460Z,99729.00
2018-10-06T03:40:10.746Z,99727.00
2018-10-06T03:42:40.928Z,99726.00
2018-10-06T03:45:11.449Z,99726.00
2018-10-06T03:47:41.696Z,99734.00
2018-10-06T03:50:11.785Z,99740.00
2018-10-06T03:52:43.487Z,99744.00
2018-10-06T03:55:13.903Z,99754.00
2018-10-06T03:57:43.973Z,99748.00
2018-10-06T04:00:14.339Z,99759.00
2018-10-06T04:02:47.365Z,99761.00
2018-10-06T04:05:17.798Z,99758.00
2018-10-06T04:07:48.728Z,99752.00
2018-10-06T04:10:18.604Z,99752.00
2018-10-06T04:12:50.067Z,99753.00
2018-10-06T04:15:19.949Z,99744.00
2018-10-06T04:17:50.374Z,99732.00
2018-10-06T04:20:20.426Z,99738.00
2018-10-06T04:22:51.467Z,99753.00
2018-10-06T04:25:21.921Z,99734.00
2018-10-06T04:27:52.267Z,99721.00
2018-10-06T04:30:22.235Z,99734.00
2018-10-06T04:32:52.493Z,99738.00
2018-10-06T04:35:22.476Z,99737.00
2018-10-06T04:37:52.477Z,99739.00
2018-10-06T04:40:22.823Z,99737.00
2018-10-06T04:42:52.860Z,99734.00
2018-10-06T04:45:22.985Z,99715.00
2018-10-06T04:47:53.270Z,99709.00
2018-10-06T04:50:23.551Z,99708.00
2018-10-06T04:52:53.797Z,99719.00
2018-10-06T04:55:24.852Z,99723.00
2018-10-06T04:57:55.251Z,99732.00
2018-10-06T05:00:25.452Z,99718.00
2018-10-06T05:02:55.479Z,99704.00
2018-10-06T05:05:25.477Z,99710.00
2018-10-06T05:07:56.049Z,99687.00
2018-10-06T05:10:26.410Z,99683.00
2018-10-06T05:12:56.448Z,99680.00
2018-10-06T05:15:26.544Z,99684.00
2018-10-06T05:17:56.575Z,99688.00
2018-10-06T05:20:26.656Z,99683.00
2018-10-06T05:22:56.733Z,99684.00
2018-10-06T05:25:27.334Z,99697.00
2018-10-06T05:27:57.475Z,99713.00
2018-10-06T05:30:27.666Z,99724.00
2018-10-06T05:32:57.933Z,99718.00
2018-10-06T05:35:27.995Z,99733.00
2018-10-06T05:37:59.011Z,99737.00
2018-10-06T05:40:29.214Z,99743.00
2018-10-06T05:42:59.307Z,99748.00
2018-10-06T05:45:29.835Z,99755.00
2018-10-06T05:48:00.486Z,99752.00
2018-10-06T05:50:31.476Z,99750.00
2018-10-06T05:53:01.763Z,99746.00
2018-10-06T05:55:31.726Z,99746.00
2018-10-06T05:58:02.171Z,99751.00
2018-10-06T06:00:32.370Z,99756.00
2018-10-06T06:03:02.454Z,99749.00
2018-10-06T06:05:32.529Z,99751.00
2018-10-06T06:08:02.448Z,99747.00
2018-10-06T06:10:32.971Z,99753.00
2018-10-06T06:13:03.085Z,99744.00
2018-10-06T06:15:33.293Z,99765.00
2018-10-06T06:18:03.358Z,99765.00
2018-10-06T06:20:33.459Z,99757.00
2018-10-06T06:23:03.539Z,99759.00
2018-10-06T06:25:34.454Z,99750.00
2018-10-06T06:28:05.690Z,99754.00
2018-10-06T06:30:35.651Z,99759.00
2018-10-06T06:33:05.790Z,99760.00
2018-10-06T06:35:36.558Z,99771.00
2018-10-06T06:38:07.780Z,99764.00
2018-10-06T06:40:37.891Z,99774.00
2018-10-06T06:43:08.150Z,99758.00
2018-10-06T06:45:38.389Z,99758.00
2018-10-06T06:48:08.899Z,99774.00
2018-10-06T06:50:39.289Z,99780.00
2018-10-06T06:53:09.555Z,99786.00
2018-10-06T06:55:39.544Z,99783.00
2018-10-06T06:58:09.809Z,99788.00
2018-10-06T07:00:40.134Z,99795.00
2018-10-06T07:03:16.742Z,99790.00
2018-10-06T07:05:47.263Z,99806.00
2018-10-06T07:08:17.442Z,99808.00
2018-10-06T07:10:47.571Z,99818.00
2018-10-06T07:13:17.631Z,99819.00
2018-10-06T07:15:47.816Z,99820.00
2018-10-06T07:18:18.368Z,99826.00
2018-10-06T07:20:48.652Z,99837.00
2018-10-06T07:23:18.798Z,99829.00
2018-10-06T07:25:49.169Z,99834.00
2018-10-06T07:28:19.197Z,99838.00
2018-10-06T07:30:49.367Z,99834.00
2018-10-06T07:33:19.611Z,99830.00
2018-10-06T07:35:49.845Z,99831.00
2018-10-06T07:38:20.247Z,99829.00
2018-10-06T07:40:50.654Z,99810.00
2018-10-06T07:43:21.183Z,99834.00
2018-10-06T07:45:51.362Z,99843.00
2018-10-06T07:48:22.157Z,99843.00
2018-10-06T07:50:52.763Z,99855.00
2018-10-06T07:53:23.054Z,99844.00
2018-10-06T07:55:53.198Z,99852.00
2018-10-06T07:58:23.933Z,99855.00
2018-10-06T08:00:54.132Z,99860.00
2018-10-06T08:03:24.209Z,99845.00
2018-10-06T08:05:54.434Z,99856.00
2018-10-06T08:08:24.645Z,99843.00
2018-10-06T08:10:54.796Z,99859.00
2018-10-06T08:13:25.077Z,99849.00
2018-10-06T08:15:55.203Z,99853.00
2018-10-06T08:18:25.244Z,99851.00
2018-10-06T08:20:55.435Z,99863.00
2018-10-06T08:23:25.978Z,99848.00
2018-10-06T08:25:56.205Z,99842.00
2018-10-06T08:28:27.033Z,99835.00
2018-10-06T08:30:57.226Z,99841.00
2018-10-06T08:33:27.326Z,99846.00
2018-10-06T08:35:58.612Z,99849.00
2018-10-06T08:38:28.710Z,99867.00
2018-10-06T08:40:58.940Z,99874.00
2018-10-06T08:43:29.395Z,99866.00
2018-10-06T08:45:59.418Z,99877.00
2018-10-06T08:48:32.263Z,99872.00
2018-10-06T08:51:02.385Z,99873.00
2018-10-06T08:53:32.507Z,99887.00
2018-10-06T08:56:03.193Z,99890.00
2018-10-06T08:58:33.207Z,99898.00
2018-10-06T09:01:04.030Z,99900.00
2018-10-06T09:03:34.139Z,99891.00
2018-10-06T09:06:04.658Z,99887.00
2018-10-06T09:08:35.910Z,99900.00
2018-10-06T09:11:06.158Z,99892.00
2018-10-06T09:13:36.021Z,99898.00
2018-10-06T09:16:06.242Z,99897.00
2018-10-06T09:18:36.052Z,99899.00
2018-10-06T09:21:05.838Z,99902.00
2018-10-06T09:23:35.910Z,99905.00
2018-10-06T09:26:06.207Z,99902.00
2018-10-06T09:28:36.332Z,99907.00
2018-10-06T09:31:06.831Z,99910.00
2018-10-06T09:33:36.679Z,99906.00
2018-10-06T09:36:06.878Z,99899.00
2018-10-06T09:38:36.944Z,99903.00
2018-10-06T09:41:08.397Z,99909.00
2018-10-06T09:43:38.589Z,99904.00
2018-10-06T09:46:09.358Z,99910.00
2018-10-06T09:48:39.904Z,99917.00
2018-10-06T09:51:10.347Z,99909.00
2018-10-06T09:53:42.203Z,99915.00
2018-10-06T09:56:13.009Z,99918.00
2018-10-06T09:58:43.082Z,99917.00
2018-10-06T10:01:18.476Z,99930.00
2018-10-06T10:03:54.533Z,99923.00
2018-10-06T10:06:24.689Z,99930.00
2018-10-06T10:08:54.609Z,99939.00
2018-10-06T10:11:24.876Z,99937.00
2018-10-06T10:13:55.115Z,99938.00
2018-10-06T10:16:25.473Z,99939.00
2018-10-06T10:18:55.563Z,99928.00
2018-10-06T10:21:29.129Z,99937.00
2018-10-06T10:23:59.571Z,99941.00
2018-10-06T10:26:30.867Z,99937.00
2018-10-06T10:29:01.244Z,99942.00
2018-10-06T10:31:32.309Z,99942.00
2018-10-06T10:34:02.616Z,99930.00
2018-10-06T10:36:32.959Z,99944.00
2018-10-06T10:39:06.147Z,99937.00
2018-10-06T10:41:36.507Z,99938.00
2018-10-06T10:44:07.812Z,99943.00
2018-10-06T10:46:37.835Z,99946.00
2018-10-06T10:49:08.062Z,99943.00
2018-10-06T10:51:38.293Z,99945.00
2018-10-06T10:54:09.181Z,99948.00
2018-10-06T10:56:39.465Z,99943.00
2018-10-06T10:59:09.507Z,99945.00
2018-10-06T11:01:39.798Z,99946.00
2018-10-06T11:04:10.504Z,99945.00
2018-10-06T11:06:40.951Z,99950.00
2018-10-06T11:09:10.924Z,99943.00
2018-10-06T11:11:40.838Z,99956.00
2018-10-06T11:14:11.122Z,99947.00
2018-10-06T11:16:41.822Z,99953.00
2018-10-06T11:19:12.437Z,99961.00
2018-10-06T11:21:42.782Z,99945.00
2018-10-06T11:24:13.337Z,99937.00
2018-10-06T11:26:43.449Z,99946.00
2018-10-06T11:29:13.835Z,99941.00
2018-10-06T11:31:44.288Z,99949.00
2018-10-06T11:34:14.512Z,99941.00
2018-10-06T11:36:44.587Z,99944.00
2018-10-06T11:39:14.796Z,99940.00
2018-10-06T11:41:44.765Z,99875.00
2018-10-06T11:44:15.006Z,99933.00
2018-10-06T11:46:44.956Z,99937.00
2018-10-06T11:49:15.492Z,99923.00
2018-10-06T11:51:45.914Z,99925.00
2018-10-06T11:54:16.037Z,99933.00
2018-10-06T11:56:46.072Z,99934.00
2018-10-06T11:59:16.172Z,99933.00
2018-10-06T12:01:46.339Z,99939.00
2018-10-06T12:04:16.709Z,99940.00
2018-10-06T12:06:46.591Z,99941.00
2018-10-06T12:09:16.845Z,99937.00
2018-10-06T12:11:47.235Z,99935.00
2018-10-06T12:14:18.691Z,99936.00
2018-10-06T12:16:49.054Z,99938.00
2018-10-06T12:19:19.050Z,99933.00
2018-10-06T12:21:49.567Z,99943.00
2018-10-06T12:24:19.599Z,99945.00
2018-10-06T12:26:49.998Z,99941.00
2018-10-06T12:29:21.079Z,99938.00
2018-10-06T12:31:51.362Z,99936.00
2018-10-06T12:34:21.578Z,99942.00
2018-10-06T12:36:52.330Z,99941.00
2018-10-06T12:39:22.315Z,99949.00
2018-10-06T12:41:52.372Z,99949.00
2018-10-06T12:44:22.625Z,99948.00
2018-10-06T12:46:52.963Z,99946.00
2018-10-06T12:49:23.020Z,99949.00
2018-10-06T12:51:53.237Z,99935.00
2018-10-06T12:54:23.335Z,99941.00
2018-10-06T12:56:53.328Z,99934.00
2018-10-06T12:59:23.669Z,99940.00
2018-10-06T13:01:53.857Z,99940.00
2018-10-06T13:04:24.019Z,99942.00
2018-10-06T13:06:54.109Z,99945.00
2018-10-06T13:09:24.542Z,99948.00
2018-10-06T13:11:55.096Z,99951.00
2018-10-06T13:14:26.240Z,99959.00
2018-10-06T13:16:56.640Z,99974.00
2018-10-06T13:19:26.646Z,99972.00
2018-10-06T13:21:56.966Z,99984.00
2018-10-06T13:24:27.126Z,99986.00
2018-10-06T13:26:57.416Z,99978.00
2018-10-06T13:29:27.678Z,99975.00
2018-10-06T13:31:58.218Z,99977.00
2018-10-06T13:34:29.559Z,99979.00
2018-10-06T13:36:59.720Z,99974.00
2018-10-06T13:39:29.971Z,99976.00
2018-10-06T13:42:00.159Z,99976.00
2018-10-06T13:44:30.872Z,99968.00
2018-10-06T13:47:01.215Z,99969.00
2018-10-06T13:49:31.584Z,99984.00
2018-10-06T13:52:01.518Z,99971.00
2018-10-06T13:54:31.800Z,99974.00
2018-10-06T13:57:02.067Z,99961.00
2018-10-06T13:59:32.436Z,99972.00
2018-10-06T14:02:02.457Z,99973.00
2018-10-06T14:04:32.855Z,99982.00
2018-10-06T14:07:03.142Z,99992.00
2018-10-06T14:09:33.118Z,99987.00
2018-10-06T14:12:03.487Z,99997.00
2018-10-06T14:14:33.622Z,100006.00
2018-10-06T14:17:04.181Z,100001.00
2018-10-06T14:19:34.315Z,100009.00
2018-10-06T14:22:04.546Z,100012.00
2018-10-06T14:24:34.903Z,100007.00
2018-10-06T14:27:05.000Z,100002.00
2018-10-06T14:29:35.462Z,100007.00
2018-10-06T14:32:05.367Z,100012.00
2018-10-06T14:34:36.029Z,100013.00
2018-10-06T14:37:06.463Z,100029.00
2018-10-06T14:39:37.010Z,100044.00
2018-10-06T14:42:07.412Z,100030.00
2018-10-06T14:44:37.783Z,100031.00
2018-10-06T14:47:07.996Z,100032.00
2018-10-06T14:49:38.172Z,100043.00
2018-10-06T14:52:08.133Z,100051.00
2018-10-06T14:54:39.387Z,100050.00
2018-10-06T14:57:09.861Z,100054.00
2018-10-06T14:59:40.159Z,100054.00
2018-10-06T15:02:10.233Z,100046.00
2018-10-06T15:04:40.438Z,100048.00
2018-10-06T15:07:11.107Z,100049.00
2018-10-06T15:09:41.294Z,100049.00
2018-10-06T15:12:11.499Z,100053.00
2018-10-06T15:14:41.726Z,100057.00
2018-10-06T15:17:11.964Z,100062.00
2018-10-06T15:19:42.187Z,100073.00
2018-10-06T15:22:12.460Z,100080.00
2018-10-06T15:24:42.640Z,100074.00
2018-10-06T15:27:13.857Z,100065.00
2018-10-06T15:29:43.902Z,100069.00
2018-10-06T15:32:14.184Z,100080.00
2018-10-06T15:34:44.657Z,100076.00
2018-10-06T15:37:15.163Z,100082.00
2018-10-06T15:39:45.289Z,100068.00
2018-10-06T15:42:15.484Z,100069.00
2018-10-06T15:44:45.670Z,100076.00
2018-10-06T15:47:15.954Z,100086.00
2018-10-06T15:49:46.163Z,100090.00
2018-10-06T15:52:16.266Z,100090.00
2018-10-06T15:54:46.685Z,100093.00
2018-10-06T15:57:16.964Z,100106.00
2018-10-06T15:59:47.065Z,100118.00
2018-10-06T16:02:17.055Z,100115.00
2018-10-06T16:04:47.191Z,100115.00
2018-10-06T16:07:17.418Z,100119.00
2018-10-06T16:09:47.484Z,100127.00
2018-10-06T16:12:17.658Z,100129.00
2018-10-06T16:14:47.976Z,100127.00
2018-10-06T16:17:18.865Z,100141.00
2018-10-06T16:19:49.727Z,100139.00
2018-10-06T16:22:19.943Z,100150.00
2018-10-06T16:24:50.044Z,100147.00
2018-10-06T16:27:20.346Z,100154.00
2018-10-06T16:29:50.700Z,100164.00
2018-10-06T16:32:21.251Z,100175.00
2018-10-06T16:34:51.328Z,100170.00
2018-10-06T16:37:21.467Z,100167.00
2018-10-06T16:39:51.588Z,100166.00
2018-10-06T16:42:21.528Z,100103.00
2018-10-06T16:44:51.622Z,100167.00
2018-10-06T16:47:21.711Z,100160.00
2018-10-06T16:49:51.765Z,100182.00
2018-10-06T16:52:21.830Z,100179.00
2018-10-06T16:54:52.534Z,100189.00
2018-10-06T16:57:22.808Z,100181.00
2018-10-06T16:59:53.007Z,100179.00
2018-10-06T17:02:24.432Z,100190.00
2018-10-06T17:04:54.884Z,100193.00
2018-10-06T17:07:25.059Z,100207.00
2018-10-06T17:09:55.395Z,100201.00
2018-10-06T17:12:26.132Z,100216.00
2018-10-06T17:14:56.417Z,100229.00
2018-10-06T17:17:27.139Z,100232.00
2018-10-06T17:19:57.450Z,100240.00
2018-10-06T17:22:33.350Z,100247.00
2018-10-06T17:25:06.411Z,100239.00
2018-10-06T17:27:36.442Z,100239.00
2018-10-06T17:30:06.617Z,100247.00
2018-10-06T17:32:36.553Z,100246.00
2018-10-06T17:35:06.832Z,100244.00
2018-10-06T17:37:36.889Z,100257.00
2018-10-06T17:40:06.987Z,100267.00
2018-10-06T17:42:37.124Z,100269.00
2018-10-06T17:45:07.482Z,100276.00
2018-10-06T17:47:37.606Z,100291.00
2018-10-06T17:50:08.014Z,100280.00
2018-10-06T17:52:37.893Z,100287.00
2018-10-06T17:55:07.696Z,100293.00
2018-10-06T17:57:38.276Z,100295.00
2018-10-06T18:00:08.455Z,100298.00
2018-10-06T18:02:38.974Z,100309.00
2018-10-06T18:05:09.455Z,100311.00
2018-10-06T18:07:40.111Z,100321.00
2018-10-06T18:10:10.384Z,100330.00
2018-10-06T18:12:40.223Z,100334.00
2018-10-06T18:15:10.278Z,100335.00
2018-10-06T18:17:40.592Z,100323.00
2018-10-06T18:20:10.935Z,100345.00
2018-10-06T18:22:40.944Z,100347.00
2018-10-06T18:25:11.151Z,100358.00
2018-10-06T18:27:41.826Z,100349.00
2018-10-06T18:30:11.872Z,100352.00
2018-10-06T18:32:42.274Z,100351.00
2018-10-06T18:35:12.641Z,100357.00
2018-10-06T18:37:42.940Z,100354.00
2018-10-06T18:40:13.052Z,100358.00
2018-10-06T18:42:43.069Z,100360.00
2018-10-06T18:45:13.066Z,100364.00
2018-10-06T18:47:43.156Z,100362.00
2018-10-06T18:50:13.404Z,100365.00
2018-10-06T18:52:43.710Z,100371.00
2018-10-06T18:55:14.011Z,100379.00
2018-10-06T18:57:44.231Z,100402.00
2018-10-06T19:00:15.115Z,100392.00
2018-10-06T19:02:46.365Z,100398.00
2018-10-06T19:05:16.478Z,100398.00
2018-10-06T19:07:46.561Z,100388.00
2018-10-06T19:10:16.967Z,100397.00
2018-10-06T19:12:46.896Z,100403.00
2018-10-06T19:15:16.910Z,100401.00
2018-10-06T19:17:47.140Z,100408.00
2018-10-06T19:20:17.329Z,100413.00
2018-10-06T19:22:47.855Z,100408.00
2018-10-06T19:25:18.411Z,100418.00
2018-10-06T19:27:48.615Z,100422.00
2018-10-06T19:30:18.779Z,100428.00
2018-10-06T19:32:48.988Z,100429.00
2018-10-06T19:35:19.381Z,100433.00
2018-10-06T19:37:56.024Z,100440.00
2018-10-06T19:40:26.351Z,100440.00
2018-10-06T19:42:56.610Z,100449.00
2018-10-06T19:45:26.978Z,100450.00
2018-10-06T19:47:58.000Z,100456.00
2018-10-06T19:50:28.210Z,100448.00
2018-10-06T19:52:58.086Z,100454.00
2018-10-06T19:55:27.991Z,100468.00
2018-10-06T19:57:58.341Z,100465.00
2018-10-06T20:00:28.600Z,100476.00
2018-10-06T20:02:58.762Z,100487.00
2018-10-06T20:05:28.929Z,100498.00
2018-10-06T20:07:58.835Z,100497.00
2018-10-06T20:10:29.075Z,100497.00
2018-10-06T20:12:59.137Z,100511.00
2018-10-06T20:15:29.630Z,100520.00
2018-10-06T20:18:00.430Z,100516.00
2018-10-06T20:20:30.859Z,100520.00
2018-10-06T20:23:00.979Z,100513.00
2018-10-06T20:25:31.017Z,100520.00
2018-10-06T20:28:00.949Z,100523.00
2018-10-06T20:30:31.093Z,100533.00
2018-10-06T20:33:01.273Z,100552.00
2018-10-06T20:35:32.281Z,100545.00
2018-10-06T20:38:02.621Z,100544.00
2018-10-06T20:40:32.756Z,100543.00
2018-10-06T20:43:03.051Z,100543.00
2018-10-06T20:45:33.098Z,100561.00
2018-10-06T20:48:03.034Z,100558.00
2018-10-06T20:50:33.552Z,100551.00
2018-10-06T20:53:03.487Z,100554.00
2018-10-06T20:55:33.983Z,100559.00
2018-10-06T20:58:03.992Z,100557.00
2018-10-06T21:00:34.457Z,100573.00
2018-10-06T21:03:04.703Z,100573.00
2018-10-06T21:05:35.382Z,100579.00
2018-10-06T21:08:05.576Z,100591.00
2018-10-06T21:10:35.904Z,100586.00
2018-10-06T21:13:06.036Z,100594.00
2018-10-06T21:15:35.952Z,100596.00
2018-10-06T21:18:06.661Z,100598.00
2018-10-06T21:20:37.154Z,100604.00
2018-10-06T21:23:07.456Z,100617.00
2018-10-06T21:25:37.737Z,100608.00
2018-10-06T21:28:08.248Z,100610.00
2018-10-06T21:30:38.440Z,100624.00
2018-10-06T21:33:08.975Z,100624.00
2018-10-06T21:35:39.221Z,100620.00
2018-10-06T21:38:09.445Z,100618.00
2018-10-06T21:40:39.517Z,100628.00
2018-10-06T21:43:09.483Z,100623.00
2018-10-06T21:45:39.651Z,100622.00
2018-10-06T21:48:09.575Z,100611.00
2018-10-06T21:50:39.689Z,100616.00
2018-10-06T21:53:10.209Z,100621.00
2018-10-06T21:55:40.370Z,100625.00
2018-10-06T21:58:10.579Z,100625.00
2018-10-06T22:00:40.704Z,100635.00
2018-10-06T22:03:11.295Z,100630.00
2018-10-06T22:05:41.270Z,100628.00
2018-10-06T22:08:11.865Z,100630.00
2018-10-06T22:10:42.179Z,100627.00
2018-10-06T22:13:12.384Z,100632.00
2018-10-06T22:15:42.825Z,100642.00
2018-10-06T22:18:13.055Z,100638.00
2018-10-06T22:20:43.373Z,100628.00
2018-10-06T22:23:14.442Z,100632.00
2018-10-06T22:25:44.519Z,100640.00
2018-10-06T22:28:14.846Z,100643.00
2018-10-06T22:30:45.060Z,100634.00
2018-10-06T22:33:15.313Z,100635.00
2018-10-06T22:35:45.358Z,100628.00
2018-10-06T22:38:15.836Z,100620.00
2018-10-06T22:40:46.007Z,100613.00
2018-10-06T22:43:17.142Z,100623.00
2018-10-06T22:45:47.313Z,100628.00
2018-10-06T22:48:17.666Z,100625.00
2018-10-06T22:50:47.863Z,100621.00
2018-10-06T22:53:18.228Z,100627.00
2018-10-06T22:55:48.514Z,100634.00
2018-10-06T22:58:19.351Z,100638.00
2018-10-06T23:00:49.959Z,100634.00
2018-10-06T23:03:20.166Z,100648.00
2018-10-06T23:05:50.424Z,100651.00
2018-10-06T23:08:20.865Z,100647.00
2018-10-06T23:10:50.926Z,100649.00
2018-10-06T23:13:21.204Z,100651.00
2018-10-06T23:15:51.707Z,100659.00
2018-10-06T23:18:21.946Z,100656.00
2018-10-06T23:20:52.248Z,100658.00
2018-10-06T23:23:22.460Z,100656.00
2018-10-06T23:25:52.733Z,100662.00
2018-10-06T23:28:22.909Z,100663.00
2018-10-06T23:30:53.620Z,100664.00
2018-10-06T23:33:24.067Z,100662.00
2018-10-06T23:35:54.018Z,100656.00
2018-10-06T23:38:24.139Z,100653.00
2018-10-06T23:40:54.226Z,100655.00
2018-10-06T23:43:24.483Z,100657.00
2018-10-06T23:45:54.725Z,100650.00
2018-10-06T23:48:25.264Z,100658.00
2018-10-06T23:50:56.184Z,100655.00
2018-10-06T23:53:26.309Z,100656.00
2018-10-06T23:55:56.608Z,100664.00
2018-10-06T23:58:26.829Z,100654.00
